createdAt,value
2023-05-05T00:00:28.406Z,95610.92
2023-05-05T00:01:50.918Z,95607.14
2023-05-05T00:02:57.185Z,95608.27
2023-05-05T00:04:04.256Z,95607.20
2023-05-05T00:05:11.800Z,95608.67
2023-05-05T00:06:19.078Z,95607.39
2023-05-05T00:07:25.437Z,95605.64
2023-05-05T00:08:32.180Z,95605.88
2023-05-05T00:09:37.975Z,95605.09
2023-05-05T00:10:45.023Z,95603.94
2023-05-05T00:11:51.163Z,95601.84
2023-05-05T00:12:58.235Z,95602.80
2023-05-05T00:14:04.045Z,95603.73
2023-05-05T00:15:12.119Z,95602.02
2023-05-05T00:16:18.004Z,95599.86
2023-05-05T00:17:24.098Z,95600.98
2023-05-05T00:18:32.106Z,95600.82
2023-05-05T00:19:37.996Z,95597.77
2023-05-05T00:20:43.912Z,95597.98
2023-05-05T00:21:49.700Z,95595.90
2023-05-05T00:22:55.722Z,95596.23
2023-05-05T00:24:02.191Z,95597.52
2023-05-05T00:25:10.083Z,95598.20
2023-05-05T00:26:16.565Z,95597.39
2023-05-05T00:27:22.452Z,95602.30
2023-05-05T00:28:29.090Z,95598.73
2023-05-05T00:29:34.957Z,95596.58
2023-05-05T00:30:42.731Z,95598.47
2023-05-05T00:31:50.264Z,95595.71
2023-05-05T00:32:57.442Z,95597.47
2023-05-05T00:34:03.364Z,95597.48
2023-05-05T00:35:10.493Z,95597.07
2023-05-05T00:36:16.934Z,95599.15
2023-05-05T00:37:23.226Z,95600.27
2023-05-05T00:38:29.621Z,95602.15
2023-05-05T00:39:35.666Z,95600.04
2023-05-05T00:40:41.791Z,95596.15
2023-05-05T00:41:48.358Z,95595.36
2023-05-05T00:42:54.656Z,95594.08
2023-05-05T00:44:00.832Z,95597.16
2023-05-05T00:45:09.092Z,95594.16
2023-05-05T00:46:24.327Z,95594.77
2023-05-05T00:47:31.360Z,95597.81
2023-05-05T00:48:37.496Z,95596.39
2023-05-05T00:49:44.597Z,95603.14
2023-05-05T00:50:50.491Z,95598.80
2023-05-05T00:51:56.519Z,95596.81
2023-05-05T00:53:04.416Z,95599.09
2023-05-05T00:54:11.090Z,95597.33
2023-05-05T00:55:17.446Z,95599.48
2023-05-05T00:56:27.458Z,95597.42
2023-05-05T00:57:36.389Z,95596.04
2023-05-05T00:58:44.084Z,95596.46
2023-05-05T00:59:53.290Z,95598.19
2023-05-05T01:00:59.137Z,95593.98
2023-05-05T01:02:05.568Z,95596.19
2023-05-05T01:03:15.457Z,95592.69
2023-05-05T01:04:22.306Z,95592.34
2023-05-05T01:05:34.148Z,95593.64
2023-05-05T01:06:48.811Z,95591.95
2023-05-05T01:08:15.604Z,95590.98
2023-05-05T01:09:35.153Z,95592.61
2023-05-05T01:10:47.126Z,95594.98
2023-05-05T01:12:01.053Z,95591.70
2023-05-05T01:13:20.600Z,95593.64
2023-05-05T01:14:37.712Z,95593.16
2023-05-05T01:15:50.731Z,95596.66
2023-05-05T01:17:00.284Z,95597.58
2023-05-05T01:18:16.873Z,95592.05
2023-05-05T01:19:51.058Z,95590.38
2023-05-05T01:21:03.738Z,95591.77
2023-05-05T01:22:12.190Z,95589.15
2023-05-05T01:23:37.384Z,95589.56
2023-05-05T01:25:12.586Z,95589.11
2023-05-05T01:26:49.147Z,95588.52
2023-05-05T01:28:16.049Z,95584.23
2023-05-05T01:29:56.954Z,95586.98
2023-05-05T01:31:24.070Z,95584.40
2023-05-05T01:32:35.034Z,95584.73
2023-05-05T01:33:45.857Z,95579.99
2023-05-05T01:34:58.526Z,95580.13
2023-05-05T01:36:10.726Z,95584.62
2023-05-05T01:37:23.097Z,95582.80
2023-05-05T01:38:37.113Z,95579.42
2023-05-05T01:39:46.638Z,95576.87
2023-05-05T01:41:00.576Z,95579.54
2023-05-05T01:42:15.214Z,95580.56
2023-05-05T01:43:23.433Z,95580.20
2023-05-05T01:44:31.458Z,95575.61
2023-05-05T01:45:41.725Z,95577.40
2023-05-05T01:46:49.541Z,95574.84
2023-05-05T01:47:59.048Z,95574.50
2023-05-05T01:49:04.786Z,95575.48
2023-05-05T01:50:15.040Z,95575.09
2023-05-05T01:51:23.536Z,95574.16
2023-05-05T01:52:30.012Z,95574.54
2023-05-05T01:53:39.273Z,95573.23
2023-05-05T01:54:47.962Z,95575.13
2023-05-05T01:55:57.864Z,95574.76
2023-05-05T01:57:06.349Z,95574.98
2023-05-05T01:58:14.866Z,95577.15
2023-05-05T01:59:23.430Z,95574.95
2023-05-05T02:00:30.531Z,95576.60
2023-05-05T02:01:41.532Z,95575.35
2023-05-05T02:02:50.260Z,95576.80
2023-05-05T02:03:59.132Z,95574.09
2023-05-05T02:05:08.955Z,95574.00
2023-05-05T02:06:18.491Z,95574.36
2023-05-05T02:07:27.001Z,95573.94
2023-05-05T02:08:34.953Z,95573.49
2023-05-05T02:09:43.908Z,95579.14
2023-05-05T02:10:53.852Z,95575.75
2023-05-05T02:12:04.833Z,95575.02
2023-05-05T02:13:13.399Z,95572.57
2023-05-05T02:14:21.026Z,95572.95
2023-05-05T02:15:27.946Z,95571.09
2023-05-05T02:16:37.456Z,95572.09
2023-05-05T02:17:46.171Z,95571.41
2023-05-05T02:18:53.948Z,95572.66
2023-05-05T02:20:02.201Z,95571.41
2023-05-05T02:21:11.411Z,95570.48
2023-05-05T02:22:18.265Z,95567.02
2023-05-05T02:23:24.470Z,95565.00
2023-05-05T02:24:31.949Z,95564.39
2023-05-05T02:25:47.750Z,95565.46
2023-05-05T02:26:57.291Z,95564.78
2023-05-05T02:28:05.361Z,95565.52
2023-05-05T02:29:15.265Z,95561.31
2023-05-05T02:30:24.012Z,95565.70
2023-05-05T02:31:31.547Z,95562.06
2023-05-05T02:32:41.621Z,95561.65
2023-05-05T02:33:51.487Z,95564.96
2023-05-05T02:35:01.767Z,95563.05
2023-05-05T02:36:16.829Z,95567.27
2023-05-05T02:37:27.385Z,95566.70
2023-05-05T02:38:37.781Z,95564.20
2023-05-05T02:39:51.666Z,95567.04
2023-05-05T02:41:01.745Z,95567.28
2023-05-05T02:42:16.527Z,95564.10
2023-05-05T02:43:26.095Z,95565.27
2023-05-05T02:44:34.767Z,95564.00
2023-05-05T02:45:41.947Z,95565.32
2023-05-05T02:46:49.238Z,95562.97
2023-05-05T02:47:56.128Z,95564.27
2023-05-05T02:49:02.484Z,95563.98
2023-05-05T02:50:11.496Z,95563.34
2023-05-05T02:51:17.723Z,95561.30
2023-05-05T02:52:24.578Z,95566.42
2023-05-05T02:53:31.596Z,95567.05
2023-05-05T02:54:37.917Z,95565.88
2023-05-05T02:55:50.676Z,95567.02
2023-05-05T02:56:59.631Z,95566.00
2023-05-05T02:58:14.590Z,95569.45
2023-05-05T02:59:29.888Z,95569.21
2023-05-05T03:00:37.199Z,95564.08
2023-05-05T03:01:54.139Z,95567.55
2023-05-05T03:03:14.291Z,95564.75
2023-05-05T03:04:28.032Z,95569.74
2023-05-05T03:05:46.069Z,95571.02
2023-05-05T03:06:57.544Z,95572.88
2023-05-05T03:08:09.889Z,95572.31
2023-05-05T03:09:21.833Z,95570.91
2023-05-05T03:10:34.242Z,95573.64
2023-05-05T03:11:45.258Z,95574.41
2023-05-05T03:12:55.424Z,95573.06
2023-05-05T03:14:09.193Z,95577.37
2023-05-05T03:15:17.199Z,95577.27
2023-05-05T03:16:26.915Z,95574.46
2023-05-05T03:17:35.307Z,95575.75
2023-05-05T03:18:42.604Z,95578.16
2023-05-05T03:19:50.485Z,95578.84
2023-05-05T03:20:57.276Z,95578.36
2023-05-05T03:22:05.041Z,95578.16
2023-05-05T03:23:13.552Z,95582.88
2023-05-05T03:24:21.989Z,95583.84
2023-05-05T03:25:46.392Z,95584.67
2023-05-05T03:26:53.532Z,95586.85
2023-05-05T03:27:59.760Z,95585.01
2023-05-05T03:29:07.155Z,95584.69
2023-05-05T03:30:16.669Z,95583.17
2023-05-05T03:31:22.787Z,95582.72
2023-05-05T03:32:31.306Z,95586.93
2023-05-05T03:33:38.193Z,95588.29
2023-05-05T03:34:44.443Z,95589.75
2023-05-05T03:35:50.900Z,95588.74
2023-05-05T03:36:59.410Z,95587.98
2023-05-05T03:38:05.813Z,95590.42
2023-05-05T03:39:12.058Z,95594.55
2023-05-05T03:40:18.181Z,95594.02
2023-05-05T03:41:25.105Z,95592.73
2023-05-05T03:42:30.861Z,95592.61
2023-05-05T03:43:37.383Z,95596.64
2023-05-05T03:44:43.512Z,95594.98
2023-05-05T03:45:51.037Z,95598.54
2023-05-05T03:46:56.863Z,95597.63
2023-05-05T03:48:02.664Z,95598.16
2023-05-05T03:49:09.962Z,95599.23
2023-05-05T03:50:17.233Z,95600.34
2023-05-05T03:51:23.938Z,95601.80
2023-05-05T03:52:30.571Z,95601.14
2023-05-05T03:53:37.073Z,95601.90
2023-05-05T03:54:43.476Z,95604.43
2023-05-05T03:55:50.497Z,95603.46
2023-05-05T03:56:56.810Z,95605.69
2023-05-05T03:58:03.202Z,95610.70
2023-05-05T03:59:10.980Z,95610.75
2023-05-05T04:00:19.762Z,95610.31
2023-05-05T04:01:25.939Z,95609.23
2023-05-05T04:02:33.607Z,95610.80
2023-05-05T04:03:40.300Z,95614.04
2023-05-05T04:04:46.459Z,95612.76
2023-05-05T04:05:52.750Z,95609.13
2023-05-05T04:06:58.984Z,95609.95
2023-05-05T04:08:06.295Z,95611.69
2023-05-05T04:09:12.763Z,95609.42
2023-05-05T04:10:18.909Z,95608.85
2023-05-05T04:11:24.750Z,95607.01
2023-05-05T04:12:30.724Z,95607.95
2023-05-05T04:13:36.890Z,95606.86
2023-05-05T04:14:42.634Z,95614.03
2023-05-05T04:15:48.599Z,95609.93
2023-05-05T04:16:54.764Z,95612.48
2023-05-05T04:18:01.266Z,95616.08
2023-05-05T04:19:07.187Z,95613.25
2023-05-05T04:20:14.102Z,95615.78
2023-05-05T04:21:20.215Z,95615.39
2023-05-05T04:22:26.318Z,95618.88
2023-05-05T04:23:32.311Z,95621.92
2023-05-05T04:24:38.351Z,95622.19
2023-05-05T04:25:44.502Z,95621.49
2023-05-05T04:26:50.935Z,95622.56
2023-05-05T04:27:57.031Z,95620.05
2023-05-05T04:29:03.851Z,95619.23
2023-05-05T04:30:12.311Z,95617.99
2023-05-05T04:31:18.286Z,95618.65
2023-05-05T04:32:25.708Z,95620.09
2023-05-05T04:33:31.634Z,95618.77
2023-05-05T04:34:38.010Z,95616.48
2023-05-05T04:35:44.673Z,95620.08
2023-05-05T04:36:50.733Z,95620.36
2023-05-05T04:37:56.894Z,95619.44
2023-05-05T04:39:03.439Z,95621.66
2023-05-05T04:40:12.098Z,95619.16
2023-05-05T04:41:17.890Z,95622.45
2023-05-05T04:42:23.669Z,95625.70
2023-05-05T04:43:30.001Z,95626.89
2023-05-05T04:44:36.863Z,95624.40
2023-05-05T04:45:51.722Z,95625.97
2023-05-05T04:46:58.479Z,95628.49
2023-05-05T04:48:06.279Z,95631.70
2023-05-05T04:49:12.410Z,95630.63
2023-05-05T04:50:19.014Z,95631.61
2023-05-05T04:51:26.458Z,95633.30
2023-05-05T04:52:32.809Z,95631.63
2023-05-05T04:53:40.698Z,95631.08
2023-05-05T04:54:46.959Z,95634.08
2023-05-05T04:55:53.522Z,95636.27
2023-05-05T04:56:59.506Z,95635.36
2023-05-05T04:58:05.918Z,95635.13
2023-05-05T04:59:11.693Z,95638.09
2023-05-05T05:00:19.759Z,95643.92
2023-05-05T05:01:25.828Z,95643.52
2023-05-05T05:02:32.234Z,95644.95
2023-05-05T05:03:38.430Z,95645.91
2023-05-05T05:04:44.536Z,95646.45
2023-05-05T05:05:51.434Z,95650.08
2023-05-05T05:06:59.372Z,95648.00
2023-05-05T05:08:07.009Z,95646.13
2023-05-05T05:09:14.083Z,95648.70
2023-05-05T05:10:21.053Z,95647.55
2023-05-05T05:11:27.835Z,95648.84
2023-05-05T05:12:34.208Z,95647.32
2023-05-05T05:13:41.948Z,95645.57
2023-05-05T05:14:47.920Z,95645.14
2023-05-05T05:15:54.082Z,95644.53
2023-05-05T05:16:59.923Z,95647.09
2023-05-05T05:18:06.193Z,95643.80
2023-05-05T05:19:12.538Z,95646.96
2023-05-05T05:20:19.193Z,95647.94
2023-05-05T05:21:26.269Z,95647.44
2023-05-05T05:22:32.830Z,95649.77
2023-05-05T05:23:39.183Z,95648.29
2023-05-05T05:24:45.014Z,95650.27
2023-05-05T05:25:52.299Z,95650.72
2023-05-05T05:26:58.909Z,95655.84
2023-05-05T05:28:09.508Z,95652.73
2023-05-05T05:29:16.917Z,95654.84
2023-05-05T05:30:23.274Z,95651.67
2023-05-05T05:31:29.295Z,95655.71
2023-05-05T05:32:35.806Z,95657.90
2023-05-05T05:33:42.564Z,95659.16
2023-05-05T05:34:48.886Z,95659.05
2023-05-05T05:35:54.615Z,95656.73
2023-05-05T05:37:01.390Z,95659.30
2023-05-05T05:38:08.282Z,95656.19
2023-05-05T05:39:14.935Z,95657.05
2023-05-05T05:40:21.360Z,95656.77
2023-05-05T05:41:27.414Z,95656.56
2023-05-05T05:42:33.291Z,95656.82
2023-05-05T05:43:39.680Z,95654.01
2023-05-05T05:44:46.428Z,95658.19
2023-05-05T05:45:53.140Z,95654.37
2023-05-05T05:46:59.243Z,95654.92
2023-05-05T05:48:07.097Z,95653.23
2023-05-05T05:49:13.524Z,95656.51
2023-05-05T05:50:20.409Z,95654.45
2023-05-05T05:51:27.021Z,95656.34
2023-05-05T05:52:34.873Z,95654.35
2023-05-05T05:53:41.374Z,95659.86
2023-05-05T05:54:48.841Z,95657.02
2023-05-05T05:55:54.703Z,95657.77
2023-05-05T05:57:00.884Z,95657.29
2023-05-05T05:58:07.582Z,95657.91
2023-05-05T05:59:13.479Z,95653.17
2023-05-05T06:00:21.769Z,95656.23
2023-05-05T06:01:27.889Z,95657.33
2023-05-05T06:02:35.243Z,95659.68
2023-05-05T06:03:41.774Z,95662.08
2023-05-05T06:04:48.996Z,95656.79
2023-05-05T06:05:55.192Z,95660.86
2023-05-05T06:07:01.378Z,95662.75
2023-05-05T06:08:07.827Z,95665.48
2023-05-05T06:09:14.571Z,95663.33
2023-05-05T06:11:31.847Z,95663.94
2023-05-05T06:12:39.233Z,95662.41
2023-05-05T06:13:46.458Z,95660.56
2023-05-05T06:14:52.505Z,95662.83
2023-05-05T06:16:03.437Z,95661.89
2023-05-05T06:17:10.138Z,95661.93
2023-05-05T06:18:16.090Z,95662.09
2023-05-05T06:19:22.889Z,95662.00
2023-05-05T06:20:29.221Z,95657.45
2023-05-05T06:21:35.981Z,95660.63
2023-05-05T06:22:42.425Z,95659.32
2023-05-05T06:23:48.655Z,95659.79
2023-05-05T06:24:54.870Z,95658.83
2023-05-05T06:26:00.635Z,95656.77
2023-05-05T06:27:06.649Z,95664.36
2023-05-05T06:28:12.379Z,95662.83
2023-05-05T06:29:18.638Z,95664.80
2023-05-05T06:30:26.322Z,95662.48
2023-05-05T06:31:34.350Z,95661.10
2023-05-05T06:32:40.446Z,95659.90
2023-05-05T06:33:46.827Z,95662.78
2023-05-05T06:34:52.767Z,95664.48
2023-05-05T06:35:58.688Z,95663.96
2023-05-05T06:37:05.144Z,95668.77
2023-05-05T06:38:13.205Z,95665.52
2023-05-05T06:39:19.528Z,95663.80
2023-05-05T06:40:25.978Z,95661.46
2023-05-05T06:41:32.189Z,95662.84
2023-05-05T06:42:37.945Z,95660.71
2023-05-05T06:43:45.217Z,95659.47
2023-05-05T06:44:52.128Z,95656.29
2023-05-05T06:45:58.787Z,95659.34
2023-05-05T06:47:06.044Z,95660.04
2023-05-05T06:48:12.850Z,95661.70
2023-05-05T06:49:19.621Z,95662.34
2023-05-05T06:50:25.865Z,95665.01
2023-05-05T06:51:32.043Z,95662.63
2023-05-05T06:52:38.476Z,95664.45
2023-05-05T06:53:45.010Z,95664.27
2023-05-05T06:54:50.810Z,95661.31
2023-05-05T06:55:56.979Z,95662.05
2023-05-05T06:57:01.987Z,95659.36
2023-05-05T06:58:06.919Z,95661.09
2023-05-05T06:59:12.025Z,95662.02
2023-05-05T07:00:18.797Z,95663.11
2023-05-05T07:01:23.769Z,95664.17
2023-05-05T07:02:29.798Z,95667.26
2023-05-05T07:03:34.323Z,95665.07
2023-05-05T07:04:39.601Z,95662.95
2023-05-05T07:05:44.109Z,95667.11
2023-05-05T07:06:48.315Z,95669.84
2023-05-05T07:07:54.019Z,95668.88
2023-05-05T07:08:58.633Z,95667.91
2023-05-05T07:10:03.110Z,95666.19
2023-05-05T07:11:07.563Z,95662.83
2023-05-05T07:12:13.133Z,95664.06
2023-05-05T07:13:17.853Z,95664.74
2023-05-05T07:14:24.379Z,95668.71
2023-05-05T07:15:30.087Z,95666.20
2023-05-05T07:16:35.550Z,95665.13
2023-05-05T07:17:40.497Z,95670.26
2023-05-05T07:18:45.025Z,95668.73
2023-05-05T07:19:49.464Z,95665.34
2023-05-05T07:20:53.969Z,95667.68
2023-05-05T07:21:58.403Z,95667.99
2023-05-05T07:23:02.687Z,95668.39
2023-05-05T07:24:08.629Z,95667.02
2023-05-05T07:25:12.949Z,95663.74
2023-05-05T07:26:17.138Z,95665.37
2023-05-05T07:27:21.782Z,95668.55
2023-05-05T07:28:26.823Z,95666.51
2023-05-05T07:29:32.255Z,95664.88
2023-05-05T07:30:36.514Z,95666.43
2023-05-05T07:31:41.302Z,95667.06
2023-05-05T07:32:46.107Z,95665.16
2023-05-05T07:33:51.019Z,95669.06
2023-05-05T07:34:55.332Z,95671.83
2023-05-05T07:35:59.805Z,95670.38
2023-05-05T07:37:04.839Z,95668.00
2023-05-05T07:38:11.011Z,95671.92
2023-05-05T07:39:15.799Z,95672.92
2023-05-05T07:40:20.931Z,95670.63
2023-05-05T07:41:25.670Z,95674.73
2023-05-05T07:42:30.846Z,95670.35
2023-05-05T07:43:39.307Z,95670.48
2023-05-05T07:44:44.305Z,95673.22
2023-05-05T07:45:48.981Z,95673.48
2023-05-05T07:46:53.633Z,95669.33
2023-05-05T07:47:58.086Z,95669.71
2023-05-05T07:49:02.554Z,95667.69
2023-05-05T07:50:09.077Z,95665.80
2023-05-05T07:51:13.530Z,95666.02
2023-05-05T07:52:17.923Z,95665.13
2023-05-05T07:53:22.546Z,95666.02
2023-05-05T07:54:27.922Z,95667.40
2023-05-05T07:55:32.639Z,95665.59
2023-05-05T07:56:37.003Z,95668.44
2023-05-05T07:57:41.618Z,95670.38
2023-05-05T07:58:45.933Z,95663.23
2023-05-05T07:59:50.952Z,95664.75
2023-05-05T08:00:55.770Z,95664.64
2023-05-05T08:02:00.497Z,95664.57
2023-05-05T08:03:05.106Z,95664.70
2023-05-05T08:04:10.575Z,95667.97
2023-05-05T08:05:15.161Z,95668.09
2023-05-05T08:06:25.415Z,95667.27
2023-05-05T08:07:30.528Z,95669.61
2023-05-05T08:08:35.345Z,95669.46
2023-05-05T08:09:42.006Z,95666.31
2023-05-05T08:10:47.039Z,95665.38
2023-05-05T08:11:51.806Z,95666.64
2023-05-05T08:12:56.276Z,95670.09
2023-05-05T08:14:00.407Z,95670.56
2023-05-05T08:15:06.429Z,95666.37
2023-05-05T08:16:12.295Z,95664.07
2023-05-05T08:17:17.506Z,95666.48
2023-05-05T08:18:21.877Z,95667.35
2023-05-05T08:19:29.261Z,95665.04
2023-05-05T08:20:35.020Z,95662.95
2023-05-05T08:21:40.047Z,95666.22
2023-05-05T08:22:47.947Z,95665.15
2023-05-05T08:23:52.650Z,95668.13
2023-05-05T08:24:56.779Z,95664.84
2023-05-05T08:26:01.265Z,95666.98
2023-05-05T08:27:05.752Z,95666.33
2023-05-05T08:28:09.921Z,95664.27
2023-05-05T08:29:14.720Z,95666.64
2023-05-05T08:30:21.567Z,95665.30
2023-05-05T08:31:26.244Z,95664.65
2023-05-05T08:32:31.502Z,95668.79
2023-05-05T08:33:35.780Z,95667.55
2023-05-05T08:34:39.987Z,95669.54
2023-05-05T08:35:44.961Z,95668.90
2023-05-05T08:36:51.527Z,95669.98
2023-05-05T08:37:58.126Z,95669.02
2023-05-05T08:39:05.097Z,95670.75
2023-05-05T08:40:11.983Z,95668.64
2023-05-05T08:41:18.525Z,95669.47
2023-05-05T08:42:36.076Z,95672.48
2023-05-05T08:43:44.920Z,95671.48
2023-05-05T08:44:49.737Z,95670.52
2023-05-05T08:45:56.274Z,95673.58
2023-05-05T08:47:00.739Z,95673.46
2023-05-05T08:48:06.168Z,95674.25
2023-05-05T08:49:14.039Z,95674.46
2023-05-05T08:50:19.925Z,95674.23
2023-05-05T08:51:28.487Z,95678.11
2023-05-05T08:52:39.668Z,95677.79
2023-05-05T08:53:47.859Z,95680.20
2023-05-05T08:54:56.162Z,95676.77
2023-05-05T08:56:01.021Z,95680.16
2023-05-05T08:57:10.124Z,95678.30
2023-05-05T08:58:16.099Z,95674.61
2023-05-05T08:59:25.711Z,95676.77
2023-05-05T09:00:30.211Z,95676.56
2023-05-05T09:01:36.499Z,95673.33
2023-05-05T09:02:45.999Z,95670.73
2023-05-05T09:03:52.566Z,95668.63
2023-05-05T09:04:58.299Z,95672.20
2023-05-05T09:06:02.671Z,95669.04
2023-05-05T09:07:07.386Z,95669.66
2023-05-05T09:08:12.140Z,95668.13
2023-05-05T09:09:19.014Z,95670.80
2023-05-05T09:10:24.802Z,95672.65
2023-05-05T09:11:29.771Z,95670.61
2023-05-05T09:12:34.331Z,95671.31
2023-05-05T09:13:38.632Z,95668.38
2023-05-05T09:14:43.033Z,95669.83
2023-05-05T09:15:47.446Z,95672.34
2023-05-05T09:16:51.972Z,95674.30
2023-05-05T09:17:58.355Z,95672.20
2023-05-05T09:19:04.054Z,95674.59
2023-05-05T09:20:10.615Z,95674.28
2023-05-05T09:21:22.522Z,95676.38
2023-05-05T09:22:36.141Z,95671.89
2023-05-05T09:24:07.852Z,95674.31
2023-05-05T09:25:14.644Z,95674.44
2023-05-05T09:26:18.862Z,95677.31
2023-05-05T09:27:23.531Z,95675.18
2023-05-05T09:28:38.871Z,95676.87
2023-05-05T09:29:50.044Z,95674.54
2023-05-05T09:30:54.299Z,95674.98
2023-05-05T09:32:09.203Z,95670.09
2023-05-05T09:34:16.392Z,95673.77
2023-05-05T09:35:22.804Z,95670.38
2023-05-05T09:36:42.385Z,95674.98
2023-05-05T09:37:47.279Z,95676.19
2023-05-05T09:39:04.894Z,95675.98
2023-05-05T09:40:11.662Z,95677.40
2023-05-05T09:41:17.949Z,95675.88
2023-05-05T09:42:22.451Z,95677.20
2023-05-05T09:43:27.244Z,95672.88
2023-05-05T09:44:35.461Z,95675.87
2023-05-05T09:45:39.777Z,95673.48
2023-05-05T09:46:51.531Z,95673.48
2023-05-05T09:47:59.688Z,95676.65
2023-05-05T09:49:16.801Z,95676.59
2023-05-05T09:50:22.561Z,95679.77
2023-05-05T09:51:30.084Z,95677.34
2023-05-05T09:52:35.007Z,95676.28
2023-05-05T09:53:42.416Z,95680.57
2023-05-05T09:54:53.377Z,95680.13
2023-05-05T09:55:59.342Z,95679.33
2023-05-05T09:57:03.622Z,95685.98
2023-05-05T09:58:23.912Z,95681.70
2023-05-05T09:59:28.700Z,95688.42
2023-05-05T10:00:39.739Z,95684.44
2023-05-05T10:01:44.726Z,95688.35
2023-05-05T10:02:50.080Z,95688.28
2023-05-05T10:03:55.589Z,95685.61
2023-05-05T10:05:12.539Z,95685.46
2023-05-05T10:06:17.611Z,95683.96
2023-05-05T10:07:27.662Z,95685.52
2023-05-05T10:08:34.021Z,95687.01
2023-05-05T10:09:38.780Z,95684.11
2023-05-05T10:10:48.061Z,95687.27
2023-05-05T10:11:52.286Z,95688.52
2023-05-05T10:12:58.757Z,95690.55
2023-05-05T10:14:07.965Z,95689.95
2023-05-05T10:15:18.972Z,95692.61
2023-05-05T10:16:27.459Z,95693.52
2023-05-05T10:17:38.635Z,95690.61
2023-05-05T10:18:48.159Z,95693.58
2023-05-05T10:20:01.373Z,95693.55
2023-05-05T10:21:09.343Z,95694.58
2023-05-05T10:22:18.771Z,95695.04
2023-05-05T10:23:28.646Z,95693.16
2023-05-05T10:24:44.641Z,95693.87
2023-05-05T10:26:02.706Z,95692.41
2023-05-05T10:27:15.843Z,95689.81
2023-05-05T10:28:35.021Z,95691.73
2023-05-05T10:29:48.930Z,95688.77
2023-05-05T10:30:57.366Z,95691.77
2023-05-05T10:32:30.184Z,95685.70
2023-05-05T10:33:49.128Z,95687.50
2023-05-05T10:34:59.989Z,95684.46
2023-05-05T10:36:08.440Z,95684.83
2023-05-05T10:37:16.731Z,95683.23
2023-05-05T10:38:28.996Z,95688.29
2023-05-05T10:39:39.598Z,95689.04
2023-05-05T10:40:49.065Z,95686.59
2023-05-05T10:41:55.220Z,95687.86
2023-05-05T10:43:01.733Z,95684.73
2023-05-05T10:44:11.286Z,95675.72
2023-05-05T10:45:17.695Z,95683.55
2023-05-05T10:46:24.862Z,95678.98
2023-05-05T10:47:33.297Z,95681.56
2023-05-05T10:48:46.400Z,95678.77
2023-05-05T10:50:00.180Z,95677.47
2023-05-05T10:51:38.437Z,95683.70
2023-05-05T10:52:59.288Z,95681.85
2023-05-05T10:54:14.452Z,95681.33
2023-05-05T10:55:28.949Z,95676.86
2023-05-05T10:56:41.381Z,95678.72
2023-05-05T10:57:52.334Z,95676.02
2023-05-05T10:59:00.105Z,95680.62
2023-05-05T11:00:09.862Z,95679.14
2023-05-05T11:01:31.408Z,95682.14
2023-05-05T11:02:38.281Z,95678.26
2023-05-05T11:03:45.572Z,95679.55
2023-05-05T11:05:15.319Z,95677.44
2023-05-05T11:06:21.178Z,95676.27
2023-05-05T11:07:27.587Z,95675.90
2023-05-05T11:08:36.365Z,95677.21
2023-05-05T11:09:57.978Z,95677.55
2023-05-05T11:11:06.200Z,95676.41
2023-05-05T11:12:13.899Z,95677.52
2023-05-05T11:13:23.824Z,95675.24
2023-05-05T11:14:30.682Z,95676.77
2023-05-05T11:15:38.877Z,95675.40
2023-05-05T11:16:48.358Z,95670.05
2023-05-05T11:17:57.583Z,95669.56
2023-05-05T11:19:37.577Z,95668.02
2023-05-05T11:21:16.799Z,95664.45
2023-05-05T11:22:24.123Z,95662.20
2023-05-05T11:23:31.368Z,95656.00
2023-05-05T11:24:39.960Z,95660.69
2023-05-05T11:25:53.213Z,95655.50
2023-05-05T11:26:59.678Z,95654.16
2023-05-05T11:28:10.621Z,95652.24
2023-05-05T11:29:17.026Z,95647.26
2023-05-05T11:30:23.750Z,95649.25
2023-05-05T11:31:31.369Z,95649.95
2023-05-05T11:32:37.509Z,95652.14
2023-05-05T11:33:43.832Z,95648.59
2023-05-05T11:34:53.740Z,95646.10
2023-05-05T11:36:05.826Z,95648.56
2023-05-05T11:37:13.759Z,95641.97
2023-05-05T11:38:23.537Z,95644.76
2023-05-05T11:39:40.944Z,95645.49
2023-05-05T11:40:48.394Z,95643.12
2023-05-05T11:42:17.424Z,95641.69
2023-05-05T11:43:24.648Z,95640.70
2023-05-05T11:44:34.628Z,95639.32
2023-05-05T11:45:41.094Z,95631.22
2023-05-05T11:47:17.523Z,95632.00
2023-05-05T11:48:29.731Z,95629.49
2023-05-05T11:49:36.943Z,95628.38
2023-05-05T11:50:43.147Z,95627.45
2023-05-05T11:51:59.744Z,95629.15
2023-05-05T11:53:07.636Z,95627.31
2023-05-05T11:54:20.449Z,95623.77
2023-05-05T11:55:27.363Z,95630.55
2023-05-05T11:56:33.972Z,95630.06
2023-05-05T11:57:39.921Z,95631.71
2023-05-05T11:58:49.878Z,95630.25
2023-05-05T11:59:58.691Z,95629.95
2023-05-05T12:01:10.668Z,95629.71
2023-05-05T12:02:22.058Z,95625.73
2023-05-05T12:03:34.056Z,95623.80
2023-05-05T12:04:42.090Z,95621.72
2023-05-05T12:05:49.087Z,95624.59
2023-05-05T12:06:57.799Z,95615.69
2023-05-05T12:08:03.357Z,95616.38
2023-05-05T12:09:14.435Z,95617.73
2023-05-05T12:10:25.075Z,95616.20
2023-05-05T12:11:30.513Z,95610.95
2023-05-05T12:12:36.222Z,95612.51
2023-05-05T12:13:41.992Z,95613.38
2023-05-05T12:14:47.658Z,95610.59
2023-05-05T12:15:52.495Z,95610.12
2023-05-05T12:16:57.600Z,95609.89
2023-05-05T12:18:03.344Z,95610.67
2023-05-05T12:19:13.122Z,95609.63
2023-05-05T12:20:17.799Z,95607.50
2023-05-05T12:21:21.937Z,95606.20
2023-05-05T12:22:26.819Z,95604.65
2023-05-05T12:23:38.209Z,95601.45
2023-05-05T12:24:42.709Z,95601.16
2023-05-05T12:25:47.504Z,95600.11
2023-05-05T12:26:52.067Z,95596.51
2023-05-05T12:27:56.593Z,95597.41
2023-05-05T12:29:03.028Z,95599.27
2023-05-05T12:30:18.879Z,95590.70
2023-05-05T12:31:23.721Z,95596.88
2023-05-05T12:32:29.089Z,95593.27
2023-05-05T12:33:39.279Z,95595.48
2023-05-05T12:34:44.023Z,95596.23
2023-05-05T12:35:48.422Z,95591.13
2023-05-05T12:36:53.377Z,95589.73
2023-05-05T12:37:58.721Z,95586.17
2023-05-05T12:39:05.246Z,95584.86
2023-05-05T12:40:30.901Z,95579.23
2023-05-05T12:41:37.313Z,95576.25
2023-05-05T12:42:42.952Z,95572.35
2023-05-05T12:43:54.733Z,95572.30
2023-05-05T12:44:59.863Z,95570.10
2023-05-05T12:46:06.291Z,95565.53
2023-05-05T12:47:11.561Z,95566.13
2023-05-05T12:48:23.152Z,95567.10
2023-05-05T12:49:27.828Z,95564.45
2023-05-05T12:50:32.668Z,95566.87
2023-05-05T12:51:37.926Z,95563.54
2023-05-05T12:52:44.581Z,95560.84
2023-05-05T12:54:02.703Z,95560.60
2023-05-05T12:55:09.143Z,95561.39
2023-05-05T12:56:34.830Z,95560.88
2023-05-05T12:57:39.685Z,95557.73
2023-05-05T12:58:49.887Z,95553.93
2023-05-05T12:59:54.170Z,95554.84
2023-05-05T13:01:11.785Z,95551.64
2023-05-05T13:02:17.224Z,95549.85
2023-05-05T13:03:21.725Z,95548.83
2023-05-05T13:04:28.283Z,95547.30
2023-05-05T13:05:33.512Z,95544.73
2023-05-05T13:06:38.235Z,95545.41
2023-05-05T13:07:52.494Z,95544.60
2023-05-05T13:08:58.700Z,95542.49
2023-05-05T13:10:10.859Z,95538.14
2023-05-05T13:11:16.854Z,95542.14
2023-05-05T13:12:23.171Z,95540.73
2023-05-05T13:13:31.965Z,95537.04
2023-05-05T13:14:36.873Z,95533.84
2023-05-05T13:15:41.194Z,95537.60
2023-05-05T13:16:45.480Z,95535.92
2023-05-05T13:17:50.126Z,95537.65
2023-05-05T13:18:54.707Z,95533.77
2023-05-05T13:19:58.888Z,95530.98
2023-05-05T13:21:03.476Z,95529.41
2023-05-05T13:22:10.092Z,95526.20
2023-05-05T13:23:14.600Z,95524.54
2023-05-05T13:24:28.724Z,95519.83